Time;durP1;ratioP1;P1;durP2;ratioP2;P2;SDS_P1;SDS_P2;PMS_P1;PMS_P2;Temp;Humidity;BMP_temperature;BMP_pressure;BME280_temperature;BME280_humidity;BME280_pressure;Samples;Min_cycle;Max_cycle;Signal;HPM_P1;HPM_P2
2021/05/19 00:01:53;;;;;;;1.17;1.10;;;16.60;71.00;;;;;;5132519;27;20060;-48
2021/05/19 00:04:18;;;;;;;1.23;1.15;;;16.60;71.00;;;;;;5133415;28;20039;-50
2021/05/19 00:06:44;;;;;;;1.30;1.20;;;16.60;71.00;;;;;;5132809;28;20483;-51
2021/05/19 00:09:13;;;;;;;1.38;1.23;;;16.60;71.10;;;;;;5132985;28;20051;-50
2021/05/19 00:11:39;;;;;;;1.58;1.23;;;16.60;71.10;;;;;;5133259;27;20073;-47
2021/05/19 00:14:07;;;;;;;1.40;1.30;;;16.60;71.10;;;;;;5132963;27;20051;-50
2021/05/19 00:16:33;;;;;;;1.15;1.05;;;16.60;71.10;;;;;;5132789;27;20051;-50
2021/05/19 00:18:59;;;;;;;1.20;1.10;;;16.60;71.10;;;;;;5132708;27;20044;-51
2021/05/19 00:21:26;;;;;;;1.70;1.30;;;16.60;71.10;;;;;;5133064;27;20471;-52
2021/05/19 00:23:51;;;;;;;1.20;1.10;;;16.60;71.10;;;;;;5133204;27;20043;-50
2021/05/19 00:26:18;;;;;;;1.85;1.10;;;16.60;71.10;;;;;;5131661;27;20043;-50
2021/05/19 00:28:46;;;;;;;1.08;0.85;;;16.60;71.10;;;;;;5132903;27;20062;-49
2021/05/19 00:31:14;;;;;;;1.40;1.30;;;16.60;71.10;;;;;;5136834;27;20536;-50
2021/05/19 00:33:40;;;;;;;1.33;1.23;;;16.60;71.10;;;;;;5136059;27;20074;-49
2021/05/19 00:36:06;;;;;;;1.20;1.10;;;16.60;71.10;;;;;;5136444;27;20118;-51
2021/05/19 00:38:32;;;;;;;1.55;1.10;;;16.60;71.20;;;;;;5136788;27;20043;-51
2021/05/19 00:40:57;;;;;;;1.23;1.13;;;16.60;71.10;;;;;;5136335;27;20035;-48
2021/05/19 00:43:24;;;;;;;1.50;1.40;;;16.60;71.10;;;;;;5136853;27;20055;-48
2021/05/19 00:45:51;;;;;;;1.15;1.08;;;16.60;71.20;;;;;;5136615;27;20046;-49
2021/05/19 00:48:16;;;;;;;1.40;1.30;;;16.60;71.20;;;;;;5136508;27;20039;-47
2021/05/19 00:50:42;;;;;;;1.38;1.08;;;16.60;71.20;;;;;;5136076;27;20054;-48
2021/05/19 00:53:08;;;;;;;1.17;1.08;;;16.60;71.20;;;;;;5136689;27;20464;-48
2021/05/19 00:55:34;;;;;;;1.48;1.38;;;16.60;71.20;;;;;;5136725;27;20404;-48
2021/05/19 00:58:00;;;;;;;1.20;1.13;;;16.60;71.20;;;;;;5136617;27;20099;-50
2021/05/19 01:00:27;;;;;;;1.55;1.15;;;16.60;71.20;;;;;;5136420;27;20119;-48
2021/05/19 01:02:53;;;;;;;1.30;1.20;;;16.60;71.20;;;;;;5136313;27;20047;-43
2021/05/19 01:05:39;;;;;;;1.52;1.38;;;16.60;71.20;;;;;;5135928;27;20402;-47
2021/05/19 01:10:51;;;;;;;1.27;1.10;;;16.50;71.20;;;;;;5135815;27;20542;-47
2021/05/19 01:13:18;;;;;;;1.30;1.20;;;16.50;71.20;;;;;;5136091;27;20328;-46
2021/05/19 01:15:44;;;;;;;1.13;1.00;;;16.50;71.20;;;;;;5135927;27;20138;-51
2021/05/19 01:18:10;;;;;;;1.27;1.15;;;16.50;71.20;;;;;;5136218;27;20052;-48
2021/05/19 01:20:37;;;;;;;1.20;1.10;;;16.50;71.90;;;;;;5135368;27;20172;-41
2021/05/19 01:23:04;;;;;;;1.10;1.00;;;16.50;71.20;;;;;;5135922;27;20047;-47
2021/05/19 01:25:31;;;;;;;1.30;1.20;;;16.50;71.20;;;;;;5135970;27;20054;-48
2021/05/19 01:28:00;;;;;;;1.10;1.00;;;16.50;71.30;;;;;;5135273;27;20405;-49
2021/05/19 01:30:27;;;;;;;1.35;1.05;;;16.40;71.20;;;;;;5135804;27;20047;-47
2021/05/19 01:32:53;;;;;;;1.30;1.20;;;16.50;71.30;;;;;;5130376;27;20487;-45
2021/05/19 01:35:19;;;;;;;1.65;1.35;;;16.50;71.30;;;;;;5135510;27;20055;-48
2021/05/19 01:37:46;;;;;;;1.33;1.23;;;16.50;71.30;;;;;;5135562;27;20051;-50
2021/05/19 01:40:14;;;;;;;1.65;1.45;;;16.50;71.30;;;;;;5135004;27;20046;-50
2021/05/19 01:42:41;;;;;;;2.03;1.27;;;16.50;71.30;;;;;;5135175;27;20063;-51
2021/05/19 01:45:08;;;;;;;1.10;1.10;;;16.50;71.30;;;;;;5135768;27;20047;-47
2021/05/19 01:47:47;;;;;;;1.40;1.02;;;16.50;71.30;;;;;;5135426;27;20050;-47
2021/05/19 01:50:36;;;;;;;0.90;0.90;;;16.50;71.30;;;;;;5135405;27;20047;-49
2021/05/19 01:53:05;;;;;;;1.40;1.10;;;16.50;71.30;;;;;;5134772;27;20046;-45
2021/05/19 01:55:31;;;;;;;1.50;1.25;;;16.50;71.40;;;;;;5135431;27;20043;-48
2021/05/19 01:57:57;;;;;;;1.15;1.05;;;16.50;71.30;;;;;;5134993;27;20047;-44
2021/05/19 02:00:25;;;;;;;1.00;0.98;;;16.50;71.30;;;;;;5134929;27;20172;-44
2021/05/19 02:02:58;;;;;;;1.15;1.05;;;16.40;71.30;;;;;;5134965;27;20043;-47
2021/05/19 02:05:25;;;;;;;1.13;1.05;;;16.50;71.40;;;;;;5134064;27;20081;-47
2021/05/19 02:07:52;;;;;;;1.30;1.20;;;16.50;71.40;;;;;;5132659;27;20522;-46
2021/05/19 02:10:18;;;;;;;1.20;1.10;;;16.50;71.40;;;;;;5135061;27;20411;-52
2021/05/19 02:12:44;;;;;;;1.10;1.00;;;16.30;71.30;;;;;;5134877;27;20051;-44
2021/05/19 02:15:11;;;;;;;2.05;1.25;;;16.40;71.30;;;;;;5134769;27;20506;-47
2021/05/19 02:17:37;;;;;;;1.50;1.20;;;16.40;71.30;;;;;;5134647;27;20045;-45
2021/05/19 02:20:11;;;;;;;1.73;1.27;;;16.40;71.40;;;;;;5135041;27;20043;-42
2021/05/19 02:22:37;;;;;;;2.85;1.40;;;16.40;71.30;;;;;;5134148;27;20046;-45
2021/05/19 02:25:04;;;;;;;1.13;1.10;;;16.50;71.40;;;;;;5134743;27;20246;-51
2021/05/19 02:27:32;;;;;;;1.30;1.20;;;16.40;71.40;;;;;;5134420;27;20047;-53
2021/05/19 02:29:58;;;;;;;1.38;1.27;;;16.40;71.40;;;;;;5134572;27;20057;-50
2021/05/19 02:32:24;;;;;;;1.25;1.15;;;16.40;71.40;;;;;;5133847;27;20181;-51
2021/05/19 02:34:50;;;;;;;1.23;1.13;;;16.40;71.40;;;;;;5134337;27;20047;-49
2021/05/19 02:37:16;;;;;;;1.25;1.08;;;16.40;71.40;;;;;;5134163;27;20096;-51
2021/05/19 02:39:42;;;;;;;1.08;0.98;;;16.40;71.40;;;;;;5134237;27;20050;-49
2021/05/19 02:42:08;;;;;;;1.10;1.00;;;16.40;71.40;;;;;;5133840;27;20050;-51
2021/05/19 02:44:33;;;;;;;1.10;1.00;;;16.40;71.40;;;;;;5133093;27;20059;-51
2021/05/19 02:46:59;;;;;;;1.20;1.10;;;16.40;71.40;;;;;;5133845;27;20562;-49
2021/05/19 02:49:25;;;;;;;1.40;1.30;;;16.40;71.40;;;;;;5132886;27;20086;-51
2021/05/19 02:51:51;;;;;;;0.90;0.85;;;16.40;71.40;;;;;;5132742;27;20067;-51
2021/05/19 02:54:16;;;;;;;1.52;1.00;;;16.40;71.40;;;;;;5133344;27;20043;-49
2021/05/19 02:56:42;;;;;;;1.15;1.05;;;16.40;71.40;;;;;;5133694;27;20536;-51
2021/05/19 02:59:08;;;;;;;1.60;1.20;;;16.40;71.40;;;;;;5134144;27;20043;-51
2021/05/19 03:01:34;;;;;;;1.20;1.10;;;16.40;71.40;;;;;;5133175;27;20043;-50
2021/05/19 03:04:00;;;;;;;1.02;1.00;;;16.40;71.40;;;;;;5133719;27;20044;-45
2021/05/19 03:06:26;;;;;;;1.27;1.10;;;16.40;71.40;;;;;;5133373;27;20043;-50
2021/05/19 03:08:52;;;;;;;0.90;0.90;;;16.40;71.40;;;;;;5133016;27;20441;-51
2021/05/19 03:11:19;;;;;;;1.33;1.17;;;16.40;71.50;;;;;;5133472;27;20043;-50
2021/05/19 03:13:45;;;;;;;1.58;1.10;;;16.40;71.50;;;;;;5133562;27;20135;-50
2021/05/19 03:16:10;;;;;;;1.30;1.20;;;16.40;71.50;;;;;;5133277;27;20487;-46
2021/05/19 03:18:40;;;;;;;1.27;1.17;;;16.40;71.50;;;;;;5133107;27;20042;-47
2021/05/19 03:21:06;;;;;;;1.48;1.38;;;16.40;71.50;;;;;;5133325;27;20384;-47
2021/05/19 03:23:32;;;;;;;1.10;0.93;;;16.40;71.50;;;;;;5132899;27;20091;-43
2021/05/19 03:25:58;;;;;;;1.30;1.20;;;16.40;71.50;;;;;;5132767;27;20091;-47
2021/05/19 03:28:24;;;;;;;1.55;1.25;;;16.40;71.50;;;;;;5132099;27;20100;-51
2021/05/19 03:30:50;;;;;;;1.38;1.10;;;16.30;71.40;;;;;;5132669;27;20047;-42
2021/05/19 03:33:16;;;;;;;1.30;1.20;;;16.40;72.20;;;;;;5132134;27;20055;-50
2021/05/19 03:35:42;;;;;;;1.20;1.10;;;16.40;71.50;;;;;;5132581;27;20047;-43
2021/05/19 03:38:08;;;;;;;1.20;1.10;;;16.30;71.50;;;;;;5132787;27;20043;-44
2021/05/19 03:40:34;;;;;;;1.30;1.20;;;16.30;71.40;;;;;;5131540;27;20092;-50
2021/05/19 03:43:01;;;;;;;1.27;1.20;;;16.30;71.50;;;;;;5133013;28;20043;-47
2021/05/19 03:45:28;;;;;;;1.33;1.15;;;16.30;71.50;;;;;;5133377;27;20043;-47
2021/05/19 03:47:54;;;;;;;0.90;0.90;;;16.30;71.50;;;;;;5133021;27;20078;-50
2021/05/19 03:50:24;;;;;;;1.10;1.00;;;16.20;71.40;;;;;;5132881;27;20046;-47
2021/05/19 03:52:50;;;;;;;1.20;1.10;;;16.30;71.50;;;;;;5132614;27;20046;-48
2021/05/19 03:55:16;;;;;;;1.20;1.10;;;16.30;71.50;;;;;;5132633;27;20043;-46
2021/05/19 03:57:41;;;;;;;1.50;1.13;;;16.30;71.50;;;;;;5132777;27;20054;-47
2021/05/19 04:00:12;;;;;;;1.88;1.00;;;16.30;71.50;;;;;;5132952;27;20054;-49
2021/05/19 04:02:37;;;;;;;1.15;1.05;;;16.30;71.50;;;;;;5133306;27;20139;-49
2021/05/19 04:05:04;;;;;;;1.40;1.30;;;16.30;71.50;;;;;;5137018;27;20498;-47
2021/05/19 04:07:29;;;;;;;1.10;1.00;;;16.30;71.50;;;;;;5136939;27;20068;-48
2021/05/19 04:09:55;;;;;;;0.88;0.88;;;16.30;71.50;;;;;;5136879;27;20126;-46
2021/05/19 04:12:21;;;;;;;1.10;1.00;;;16.30;71.50;;;;;;5136683;27;20464;-48
2021/05/19 04:14:46;;;;;;;1.30;1.20;;;16.30;71.50;;;;;;5137188;27;20050;-51
2021/05/19 04:17:12;;;;;;;1.20;1.10;;;16.30;71.50;;;;;;5137351;27;20061;-47
2021/05/19 04:19:38;;;;;;;1.20;1.10;;;16.30;71.50;;;;;;5136875;27;20047;-47
2021/05/19 04:22:04;;;;;;;1.33;1.23;;;16.30;71.60;;;;;;5137053;27;20154;-48
2021/05/19 04:24:29;;;;;;;1.67;1.33;;;16.30;71.50;;;;;;5137285;27;20104;-45
2021/05/19 04:26:55;;;;;;;1.30;1.20;;;16.30;71.50;;;;;;5136622;27;20047;-48
2021/05/19 04:29:21;;;;;;;1.17;1.08;;;16.30;71.60;;;;;;5135684;27;20047;-40
2021/05/19 04:31:47;;;;;;;0.93;0.88;;;16.30;71.60;;;;;;5136124;27;20046;-44
2021/05/19 04:34:13;;;;;;;1.40;1.30;;;16.40;71.60;;;;;;5136357;27;20051;-48
2021/05/19 04:36:39;;;;;;;1.15;1.05;;;16.30;71.60;;;;;;5136681;27;20039;-49
2021/05/19 04:39:05;;;;;;;1.50;1.35;;;16.30;71.60;;;;;;5135919;27;20121;-48
2021/05/19 04:41:31;;;;;;;1.10;1.02;;;16.30;71.60;;;;;;5136271;27;20456;-44
2021/05/19 04:43:57;;;;;;;1.20;1.10;;;16.30;71.60;;;;;;5136226;27;20113;-40
2021/05/19 04:46:23;;;;;;;1.02;1.02;;;16.30;71.60;;;;;;5136371;27;20060;-46
2021/05/19 04:48:49;;;;;;;1.25;1.13;;;16.30;71.60;;;;;;5136357;27;20501;-47
2021/05/19 04:51:15;;;;;;;1.30;1.10;;;16.30;71.60;;;;;;5136182;27;20039;-50
2021/05/19 04:53:41;;;;;;;1.10;1.00;;;16.30;71.60;;;;;;5135798;27;20099;-51
2021/05/19 04:56:07;;;;;;;1.23;1.13;;;16.30;71.60;;;;;;5135879;27;20463;-51
2021/05/19 04:58:33;;;;;;;1.35;1.25;;;16.30;71.60;;;;;;5136302;27;20054;-50
2021/05/19 05:00:58;;;;;;;1.17;1.08;;;16.30;71.60;;;;;;5136040;27;20423;-50
2021/05/19 05:03:24;;;;;;;1.00;0.95;;;16.30;71.60;;;;;;5136133;27;20091;-49
2021/05/19 05:05:55;;;;;;;1.50;1.10;;;16.30;71.60;;;;;;5135859;27;20035;-49
2021/05/19 05:08:21;;;;;;;0.82;0.82;;;16.30;71.60;;;;;;5135956;27;20035;-51
2021/05/19 05:10:47;;;;;;;1.02;1.00;;;16.30;71.60;;;;;;5135733;27;20058;-48
2021/05/19 05:13:12;;;;;;;1.85;1.20;;;16.30;71.60;;;;;;5135795;27;20180;-50
2021/05/19 05:15:38;;;;;;;1.08;0.98;;;16.20;71.60;;;;;;5134757;27;20062;-41
2021/05/19 05:18:04;;;;;;;1.45;1.20;;;16.30;71.60;;;;;;5135977;27;20039;-49
2021/05/19 05:20:30;;;;;;;1.23;1.13;;;16.30;71.70;;;;;;5136019;27;20064;-41
2021/05/19 05:22:56;;;;;;;1.10;1.00;;;16.20;71.60;;;;;;5135675;27;20066;-42
2021/05/19 05:25:22;;;;;;;1.25;1.00;;;16.30;71.60;;;;;;5135576;27;20070;-54
2021/05/19 05:27:48;;;;;;;1.35;1.00;;;16.20;71.60;;;;;;5135158;27;20403;-54
2021/05/19 05:30:16;;;;;;;1.20;1.10;;;16.30;71.60;;;;;;5135233;27;20052;-52
2021/05/19 05:32:45;;;;;;;1.08;1.00;;;16.20;71.60;;;;;;5135262;27;20059;-54
2021/05/19 05:35:11;;;;;;;2.05;1.00;;;16.20;71.60;;;;;;5135718;27;20096;-51
2021/05/19 05:37:37;;;;;;;1.17;0.88;;;16.20;71.60;;;;;;5135495;27;20039;-54
2021/05/19 05:40:05;;;;;;;1.02;1.00;;;16.20;71.60;;;;;;5134946;27;20043;-42
2021/05/19 05:42:31;;;;;;;1.48;1.05;;;16.20;71.60;;;;;;5135410;27;20043;-42
2021/05/19 05:44:56;;;;;;;1.08;0.95;;;16.20;71.60;;;;;;5134883;27;20452;-43
2021/05/19 05:47:22;;;;;;;1.10;1.00;;;16.20;71.60;;;;;;5135286;27;20043;-48
2021/05/19 05:49:50;;;;;;;1.30;0.98;;;16.20;71.60;;;;;;5135350;27;20451;-51
2021/05/19 05:52:16;;;;;;;1.15;1.05;;;16.20;71.60;;;;;;5134848;27;20050;-40
2021/05/19 05:54:42;;;;;;;0.95;0.95;;;16.20;71.60;;;;;;5135209;27;20498;-53
2021/05/19 05:57:07;;;;;;;1.30;1.20;;;16.30;71.60;;;;;;5133295;27;20395;-53
2021/05/19 05:59:34;;;;;;;1.65;1.20;;;16.20;71.60;;;;;;5134372;27;20107;-43
2021/05/19 06:02:00;;;;;;;1.17;1.08;;;16.20;71.60;;;;;;5134572;27;20150;-40
2021/05/19 06:04:25;;;;;;;2.03;1.48;;;16.20;71.60;;;;;;5134836;27;20046;-43
2021/05/19 06:06:51;;;;;;;1.65;1.33;;;16.20;71.60;;;;;;5134712;27;20043;-44
2021/05/19 06:09:17;;;;;;;0.85;0.80;;;16.20;71.60;;;;;;5134644;27;20061;-53
2021/05/19 06:11:43;;;;;;;1.48;1.23;;;16.20;71.60;;;;;;5134844;27;20051;-45
2021/05/19 06:14:09;;;;;;;1.20;1.10;;;16.20;71.60;;;;;;5134499;27;20136;-41
2021/05/19 06:16:34;;;;;;;1.17;1.05;;;16.20;71.60;;;;;;5134819;27;20112;-50
2021/05/19 06:19:01;;;;;;;1.42;1.33;;;16.20;71.60;;;;;;5134584;27;20047;-49
2021/05/19 06:21:26;;;;;;;1.30;1.20;;;16.20;71.60;;;;;;5133757;27;20039;-40
2021/05/19 06:23:52;;;;;;;1.10;1.00;;;16.20;71.60;;;;;;5134670;27;20100;-42
2021/05/19 06:26:18;;;;;;;1.77;1.42;;;16.30;71.70;;;;;;5134082;27;20047;-38
2021/05/19 06:28:44;;;;;;;1.20;1.10;;;16.20;71.60;;;;;;5134731;27;20045;-39
2021/05/19 06:31:09;;;;;;;1.48;1.10;;;16.20;71.60;;;;;;5134544;27;20047;-42
2021/05/19 06:33:36;;;;;;;1.20;1.10;;;16.20;71.60;;;;;;5134624;27;20062;-50
2021/05/19 06:36:01;;;;;;;1.10;1.00;;;16.20;71.60;;;;;;5134175;27;20047;-41
2021/05/19 06:38:27;;;;;;;1.20;1.10;;;16.20;71.60;;;;;;5134112;27;20106;-50
2021/05/19 06:40:53;;;;;;;1.30;1.20;;;16.20;71.60;;;;;;5134015;27;20123;-43
2021/05/19 06:43:18;;;;;;;1.30;1.20;;;16.30;71.70;;;;;;5134465;27;20389;-42
2021/05/19 06:45:44;;;;;;;2.47;1.40;;;16.20;71.60;;;;;;5134173;27;20047;-44
2021/05/19 06:48:10;;;;;;;1.33;1.20;;;16.20;71.60;;;;;;5134364;27;20095;-44
2021/05/19 06:50:36;;;;;;;1.40;1.30;;;16.20;71.60;;;;;;5134207;27;20053;-47
2021/05/19 06:53:01;;;;;;;1.90;1.50;;;16.20;71.60;;;;;;5134422;27;20479;-51
2021/05/19 06:55:27;;;;;;;1.15;1.05;;;16.20;71.60;;;;;;5133912;27;20051;-50
2021/05/19 06:57:53;;;;;;;1.58;1.48;;;16.20;71.60;;;;;;5133626;27;20051;-41
2021/05/19 07:00:20;;;;;;;1.45;1.33;;;16.30;71.70;;;;;;5131025;27;20954;-42
2021/05/19 07:02:46;;;;;;;1.25;1.15;;;16.20;71.60;;;;;;5133828;27;20101;-45
2021/05/19 07:05:12;;;;;;;1.58;1.40;;;16.30;71.70;;;;;;5134197;27;20560;-50
2021/05/19 07:07:38;;;;;;;1.45;1.27;;;16.20;71.60;;;;;;5133730;27;20043;-42
2021/05/19 07:10:06;;;;;;;1.38;1.27;;;16.20;71.60;;;;;;5134107;27;20043;-40
2021/05/19 07:12:32;;;;;;;1.55;1.10;;;16.20;71.60;;;;;;5133271;27;20039;-51
2021/05/19 07:15:03;;;;;;;1.60;1.38;;;16.20;71.60;;;;;;5133891;27;20504;-47
2021/05/19 07:17:30;;;;;;;12.30;7.05;;;16.30;71.70;;;;;;5133200;27;20035;-45
2021/05/19 07:19:56;;;;;;;7.93;5.28;;;16.20;71.30;;;;;;5133777;27;20051;-42
2021/05/19 07:22:25;;;;;;;6.70;4.68;;;16.20;71.40;;;;;;5132791;27;20542;-40
2021/05/19 07:24:50;;;;;;;4.10;3.42;;;16.10;71.40;;;;;;5130446;27;20043;-41
2021/05/19 07:27:16;;;;;;;6.50;4.38;;;16.10;72.10;;;;;;5133852;27;20039;-43
2021/05/19 07:29:42;;;;;;;6.18;4.70;;;16.10;71.40;;;;;;5133714;27;20046;-41
2021/05/19 07:32:08;;;;;;;6.25;5.53;;;16.20;71.50;;;;;;5132876;27;20540;-38
2021/05/19 07:34:34;;;;;;;7.22;5.18;;;16.20;71.50;;;;;;5133005;27;20062;-40
2021/05/19 07:37:00;;;;;;;6.43;5.05;;;16.20;71.50;;;;;;5133163;27;20042;-44
2021/05/19 07:39:25;;;;;;;6.78;5.07;;;16.20;71.50;;;;;;5132773;27;20043;-40
2021/05/19 07:41:51;;;;;;;5.80;5.20;;;16.20;72.10;;;;;;5132744;27;20047;-43
2021/05/19 07:44:17;;;;;;;6.07;4.82;;;16.20;71.50;;;;;;5133448;27;20126;-40
2021/05/19 07:46:42;;;;;;;5.10;4.22;;;16.20;71.40;;;;;;5133224;28;20096;-40
2021/05/19 07:49:08;;;;;;;12.07;5.05;;;16.20;71.40;;;;;;5133321;28;20054;-40
2021/05/19 07:51:34;;;;;;;5.72;4.82;;;16.20;71.40;;;;;;5132954;27;20067;-40
2021/05/19 07:54:00;;;;;;;5.15;4.28;;;16.20;71.50;;;;;;5133320;28;20047;-41
2021/05/19 07:56:35;;;;;;;6.20;5.05;;;16.30;71.50;;;;;;5133078;27;20043;-38
2021/05/19 07:59:09;;;;;;;6.22;4.93;;;16.20;71.40;;;;;;5133309;27;20047;-41
2021/05/19 08:04:05;;;;;;;6.72;4.65;;;16.20;71.40;;;;;;5132442;27;20168;-41
2021/05/19 08:06:31;;;;;;;5.50;4.43;;;16.20;71.40;;;;;;5133095;27;20067;-41
2021/05/19 08:08:56;;;;;;;6.30;4.40;;;16.30;71.50;;;;;;5133173;28;20143;-40
2021/05/19 08:11:22;;;;;;;5.38;4.25;;;16.30;71.50;;;;;;5133060;27;20070;-41
2021/05/19 08:13:47;;;;;;;4.70;4.05;;;16.30;71.50;;;;;;5132756;27;20062;-38
2021/05/19 08:16:15;;;;;;;4.63;4.13;;;16.30;71.50;;;;;;5133298;27;20055;-39
2021/05/19 08:18:41;;;;;;;4.95;4.03;;;16.20;71.40;;;;;;5132754;27;20047;-41
2021/05/19 08:21:07;;;;;;;4.78;3.97;;;16.30;71.50;;;;;;5133144;27;20101;-40
2021/05/19 08:23:33;;;;;;;5.05;3.70;;;16.30;71.40;;;;;;5132920;27;20043;-47
2021/05/19 08:26:00;;;;;;;5.38;4.05;;;16.30;71.40;;;;;;5131135;27;20047;-42
2021/05/19 08:28:25;;;;;;;5.32;4.38;;;16.30;71.40;;;;;;5133323;28;20107;-42
2021/05/19 08:30:51;;;;;;;3.70;3.35;;;16.30;71.40;;;;;;5133012;27;20451;-41
2021/05/19 08:33:17;;;;;;;5.47;3.60;;;16.30;71.40;;;;;;5132387;28;20062;-43
2021/05/19 08:35:43;;;;;;;4.95;3.70;;;16.30;71.40;;;;;;5133174;27;20452;-52
2021/05/19 08:38:09;;;;;;;4.10;3.38;;;16.30;71.40;;;;;;5132014;28;20055;-50
2021/05/19 08:40:37;;;;;;;4.30;3.70;;;16.30;71.40;;;;;;5133133;28;20092;-47
2021/05/19 08:43:03;;;;;;;3.88;3.00;;;16.30;71.40;;;;;;5133270;27;20047;-44
2021/05/19 08:45:29;;;;;;;4.22;3.67;;;16.30;71.40;;;;;;5132522;27;20462;-43
2021/05/19 08:48:05;;;;;;;4.03;3.40;;;16.30;72.10;;;;;;5133128;27;20043;-49
2021/05/19 08:50:33;;;;;;;4.82;3.83;;;16.30;71.40;;;;;;5133957;27;20514;-39
2021/05/19 08:53:00;;;;;;;5.20;3.45;;;16.30;71.40;;;;;;5136606;27;20076;-40
2021/05/19 08:55:27;;;;;;;4.85;3.60;;;16.40;71.40;;;;;;5135919;27;20043;-48
2021/05/19 08:57:53;;;;;;;3.95;3.33;;;16.40;71.40;;;;;;5136682;27;20039;-46
2021/05/19 09:00:20;;;;;;;5.57;3.75;;;16.40;71.40;;;;;;5136378;27;20110;-40
2021/05/19 09:03:06;;;;;;;4.50;4.03;;;16.40;71.50;;;;;;5136454;27;20047;-40
2021/05/19 09:05:33;;;;;;;4.30;3.30;;;16.40;71.40;;;;;;5135715;27;20047;-39
2021/05/19 09:08:06;;;;;;;4.13;3.60;;;16.40;71.40;;;;;;5135784;27;20058;-45
2021/05/19 09:10:33;;;;;;;4.10;3.70;;;16.40;71.40;;;;;;5136263;27;20043;-44
2021/05/19 09:12:59;;;;;;;3.70;3.30;;;16.40;71.40;;;;;;5135979;27;20063;-41
2021/05/19 09:15:25;;;;;;;4.03;3.10;;;16.40;71.40;;;;;;5135179;27;20122;-41
2021/05/19 09:17:59;;;;;;;4.43;3.42;;;16.40;71.30;;;;;;5134766;27;20552;-46
2021/05/19 09:20:25;;;;;;;3.47;3.00;;;16.40;71.40;;;;;;5135098;27;20411;-48
2021/05/19 09:23:02;;;;;;;3.72;3.30;;;16.40;71.30;;;;;;5135325;27;20039;-49
2021/05/19 09:25:33;;;;;;;3.88;3.38;;;16.40;71.30;;;;;;5135517;27;20039;-46
2021/05/19 09:28:02;;;;;;;3.63;3.15;;;16.40;71.30;;;;;;5135582;27;20070;-45
2021/05/19 09:30:47;;;;;;;4.07;3.33;;;16.40;71.30;;;;;;5136112;27;20047;-50
2021/05/19 09:33:26;;;;;;;3.92;3.53;;;16.50;71.40;;;;;;5135698;27;20051;-48
2021/05/19 09:36:24;;;;;;;4.50;3.33;;;16.50;71.40;;;;;;5135292;27;20055;-45
2021/05/19 09:38:53;;;;;;;3.50;3.10;;;16.50;71.40;;;;;;5125341;27;20122;-42
2021/05/19 09:41:20;;;;;;;3.80;3.00;;;16.50;71.40;;;;;;5135918;27;20100;-46
2021/05/19 09:43:47;;;;;;;3.85;3.33;;;16.50;71.40;;;;;;5135638;27;20040;-45
2021/05/19 09:46:17;;;;;;;3.60;3.20;;;16.50;71.40;;;;;;5131866;27;20272;-45
2021/05/19 09:48:44;;;;;;;3.47;2.30;;;16.50;71.40;;;;;;5131711;27;20494;-38
2021/05/19 09:51:10;;;;;;;3.30;3.00;;;16.40;71.30;;;;;;5130921;27;20050;-38
2021/05/19 09:53:35;;;;;;;2.83;2.53;;;16.50;71.30;;;;;;5131802;27;20392;-39
2021/05/19 09:56:01;;;;;;;2.53;2.33;;;16.60;71.40;;;;;;5131338;27;20054;-39
2021/05/19 09:58:39;;;;;;;2.50;2.15;;;16.50;71.30;;;;;;5131233;27;20035;-38
2021/05/19 10:01:06;;;;;;;3.35;2.67;;;16.60;71.30;;;;;;5131112;27;20075;-40
2021/05/19 10:03:33;;;;;;;2.20;1.90;;;16.60;71.30;;;;;;5130942;27;20122;-41
2021/05/19 10:06:10;;;;;;;3.00;2.42;;;16.60;71.20;;;;;;5130998;27;20123;-42
2021/05/19 10:08:35;;;;;;;2.53;2.10;;;16.60;71.20;;;;;;5131165;27;20173;-45
2021/05/19 10:11:03;;;;;;;3.03;2.60;;;16.60;71.20;;;;;;5131111;27;20570;-39
2021/05/19 10:13:30;;;;;;;2.55;2.00;;;16.60;71.20;;;;;;5131042;27;20054;-41
2021/05/19 10:16:01;;;;;;;2.75;2.00;;;16.60;71.20;;;;;;5131423;27;20051;-43
2021/05/19 10:18:30;;;;;;;3.13;2.17;;;16.60;71.10;;;;;;5131428;27;20051;-39
2021/05/19 10:20:59;;;;;;;2.80;2.38;;;16.60;71.10;;;;;;5131299;27;20051;-44
2021/05/19 10:23:41;;;;;;;2.35;1.88;;;16.70;71.20;;;;;;5131084;27;20439;-47
2021/05/19 10:26:07;;;;;;;2.17;1.85;;;16.70;71.20;;;;;;5130719;27;20191;-38
2021/05/19 10:28:47;;;;;;;2.33;2.00;;;16.70;71.10;;;;;;5131052;27;20047;-41
2021/05/19 10:31:24;;;;;;;2.20;2.00;;;16.70;71.10;;;;;;5130901;27;20479;-38
2021/05/19 10:33:51;;;;;;;2.00;1.80;;;16.70;71.10;;;;;;5130831;27;20090;-43
2021/05/19 10:36:35;;;;;;;2.40;1.83;;;16.70;71.10;;;;;;5130760;27;20047;-41
2021/05/19 10:39:10;;;;;;;2.30;2.08;;;16.70;71.10;;;;;;5130449;27;20043;-42
2021/05/19 10:41:36;;;;;;;2.00;1.60;;;16.70;71.10;;;;;;5131303;27;20050;-39
2021/05/19 10:44:09;;;;;;;1.75;1.65;;;16.70;71.10;;;;;;5131118;27;20555;-47
2021/05/19 10:46:51;;;;;;;2.03;1.60;;;16.70;71.00;;;;;;5130832;27;20047;-44
2021/05/19 10:49:18;;;;;;;2.28;1.77;;;16.80;71.10;;;;;;5131874;27;20039;-41
2021/05/19 10:51:56;;;;;;;1.75;1.65;;;16.80;71.00;;;;;;5134052;27;20050;-46
2021/05/19 10:57:35;;;;;;;2.17;1.75;;;16.80;71.00;;;;;;5134083;27;20444;-48
2021/05/19 11:00:21;;;;;;;2.13;1.60;;;16.80;70.90;;;;;;5134472;27;20506;-44
2021/05/19 11:02:53;;;;;;;2.22;1.60;;;16.80;70.90;;;;;;5134574;27;20050;-42
2021/05/19 11:05:22;;;;;;;1.55;1.45;;;16.80;70.90;;;;;;5134146;27;20039;-47
2021/05/19 11:10:41;;;;;;;1.83;1.42;;;16.90;70.80;;;;;;5133913;27;20043;-42
2021/05/19 11:13:08;;;;;;;1.50;1.30;;;16.90;70.90;;;;;;5133145;27;20078;-45
2021/05/19 11:18:13;;;;;;;;;;;16.90;70.80;;;;;;5134188;27;20120;-45
2021/05/19 11:20:38;;;;;;;2.15;1.50;;;16.90;70.80;;;;;;5133886;27;19926;-46
2021/05/19 11:23:15;;;;;;;1.27;1.17;;;16.90;70.80;;;;;;5133604;27;20445;-42
2021/05/19 11:25:41;;;;;;;1.58;1.30;;;16.90;70.80;;;;;;5133716;27;20055;-42
2021/05/19 11:28:07;;;;;;;1.42;1.27;;;16.90;70.70;;;;;;5133694;27;20548;-41
2021/05/19 11:30:33;;;;;;;2.08;1.40;;;16.90;70.70;;;;;;5133462;27;20043;-42
2021/05/19 11:33:14;;;;;;;1.38;1.27;;;17.00;70.70;;;;;;5133344;27;20059;-47
2021/05/19 11:35:41;;;;;;;1.30;1.20;;;17.00;70.60;;;;;;5133340;27;20075;-45
2021/05/19 11:38:09;;;;;;;1.30;1.20;;;17.00;70.60;;;;;;5133351;27;20047;-46
2021/05/19 11:40:40;;;;;;;1.40;1.30;;;17.00;70.60;;;;;;5133445;27;20047;-45
2021/05/19 11:43:07;;;;;;;1.45;1.00;;;17.00;70.60;;;;;;5133487;27;20130;-41
2021/05/19 11:45:33;;;;;;;1.65;1.20;;;17.00;70.50;;;;;;5133289;27;20043;-46
2021/05/19 11:47:59;;;;;;;1.30;1.15;;;17.00;70.50;;;;;;5133277;28;20059;-44
2021/05/19 11:50:30;;;;;;;1.25;1.15;;;17.00;70.50;;;;;;5133485;28;20053;-42
2021/05/19 11:53:09;;;;;;;1.25;1.10;;;17.10;70.50;;;;;;5133497;27;20047;-43
2021/05/19 11:55:35;;;;;;;1.40;1.10;;;17.10;70.50;;;;;;5133009;28;20043;-42
2021/05/19 11:58:06;;;;;;;1.30;1.20;;;17.10;70.50;;;;;;5133212;28;20045;-42
2021/05/19 12:00:36;;;;;;;1.67;1.30;;;17.10;70.50;;;;;;5133447;28;20054;-43
2021/05/19 12:03:02;;;;;;;1.40;1.30;;;17.10;71.10;;;;;;5133080;28;20040;-41
2021/05/19 12:05:46;;;;;;;1.58;1.38;;;17.10;70.40;;;;;;5133132;28;20395;-47
2021/05/19 12:08:13;;;;;;;1.10;1.00;;;17.10;70.40;;;;;;5133057;27;20084;-44
2021/05/19 12:10:41;;;;;;;1.42;1.10;;;17.10;70.40;;;;;;5132676;27;20389;-46
2021/05/19 12:13:07;;;;;;;1.27;0.90;;;17.10;70.40;;;;;;5133187;28;20051;-41
2021/05/19 12:15:35;;;;;;;1.38;1.27;;;17.10;70.30;;;;;;5133103;28;20046;-45
2021/05/19 12:18:03;;;;;;;1.20;1.10;;;17.10;70.30;;;;;;5133169;28;20043;-43
2021/05/19 12:20:30;;;;;;;1.10;1.00;;;17.10;71.00;;;;;;5133086;28;20047;-43
2021/05/19 12:23:03;;;;;;;1.60;0.95;;;17.10;70.30;;;;;;5133109;28;20407;-43
2021/05/19 12:25:30;;;;;;;1.10;1.00;;;17.20;70.40;;;;;;5135641;27;20047;-44
2021/05/19 12:28:02;;;;;;;1.80;1.25;;;17.10;70.30;;;;;;5136935;27;20126;-46
2021/05/19 12:30:28;;;;;;;1.02;0.90;;;17.20;70.30;;;;;;5136717;27;20403;-47
2021/05/19 12:32:58;;;;;;;1.20;1.10;;;17.10;70.30;;;;;;5136444;27;20067;-44
2021/05/19 12:35:26;;;;;;;1.17;1.00;;;17.20;70.30;;;;;;5136845;27;20125;-46
2021/05/19 12:37:59;;;;;;;1.40;1.25;;;17.20;70.30;;;;;;5136723;27;20039;-43
2021/05/19 12:40:29;;;;;;;1.00;0.90;;;17.10;70.20;;;;;;5136519;27;20484;-43
2021/05/19 12:43:00;;;;;;;1.15;1.05;;;17.20;70.30;;;;;;5136734;27;20415;-43
2021/05/19 12:45:42;;;;;;;1.10;1.00;;;17.20;70.30;;;;;;5136625;27;20047;-42
2021/05/19 12:48:16;;;;;;;1.00;0.90;;;17.20;70.30;;;;;;5136963;27;20047;-42
2021/05/19 12:50:48;;;;;;;1.20;0.98;;;17.20;70.30;;;;;;5136686;27;20061;-44
2021/05/19 12:53:36;;;;;;;1.08;0.98;;;17.20;70.30;;;;;;5136496;27;20099;-43
2021/05/19 12:56:22;;;;;;;1.00;1.00;;;17.20;70.30;;;;;;5136386;27;20505;-46
2021/05/19 12:58:50;;;;;;;0.75;0.75;;;17.20;70.30;;;;;;5136482;27;20051;-44
2021/05/19 13:01:18;;;;;;;0.98;0.90;;;17.20;70.30;;;;;;5136732;27;20066;-40
2021/05/19 13:03:44;;;;;;;1.10;1.00;;;17.20;70.40;;;;;;5136813;27;20506;-46
2021/05/19 13:06:10;;;;;;;0.93;0.80;;;17.20;70.30;;;;;;5136531;27;20092;-41